sensor_id;sensor_type;location;lat;lon;timestamp;pressure;altitude;pressure_sealevel;temperature;humidity
43878;BME280;29815;48.184;11.268;2023-04-21T00:02:14;95198.16;;;5.46;100.00
43878;BME280;29815;48.184;11.268;2023-04-21T00:04:44;95192.25;;;5.44;100.00
43878;BME280;29815;48.184;11.268;2023-04-21T00:07:14;95194.34;;;5.42;100.00
43878;BME280;29815;48.184;11.268;2023-04-21T05:54:31;95162.81;;;5.83;100.00
43878;BME280;29815;48.184;11.268;2023-04-21T05:57:01;95165.56;;;5.88;100.00
43878;BME280;29815;48.184;11.268;2023-04-21T05:59:30;95168.56;;;5.91;100.00
43878;BME280;29815;48.184;11.268;2023-04-21T06:02:00;95155.53;;;5.95;100.00
43878;BME280;29815;48.184;11.268;2023-04-21T06:04:30;95160.38;;;5.98;100.00
43878;BME280;29815;48.184;11.268;2023-04-21T06:07:04;95156.66;;;6.04;100.00
43878;BME280;29815;48.184;11.268;2023-04-21T06:09:36;95155.13;;;6.08;100.00
43878;BME280;29815;48.184;11.268;2023-04-21T06:12:06;95153.31;;;6.14;100.00
43878;BME280;29815;48.184;11.268;2023-04-21T06:14:36;95161.94;;;6.21;100.00
43878;BME280;29815;48.184;11.268;2023-04-21T06:17:05;95159.00;;;6.22;100.00
43878;BME280;29815;48.184;11.268;2023-04-21T06:19:36;95166.28;;;6.27;100.00
43878;BME280;29815;48.184;11.268;2023-04-21T06:22:08;95154.00;;;6.31;100.00
43878;BME280;29815;48.184;11.268;2023-04-21T06:24:39;95161.81;;;6.37;100.00
43878;BME280;29815;48.184;11.268;2023-04-21T06:27:10;95169.91;;;6.42;100.00
43878;BME280;29815;48.184;11.268;2023-04-21T06:29:41;95168.09;;;6.48;100.00
43878;BME280;29815;48.184;11.268;2023-04-21T06:32:11;95160.13;;;6.53;100.00
43878;BME280;29815;48.184;11.268;2023-04-21T06:34:40;95157.22;;;6.60;100.00
43878;BME280;29815;48.184;11.268;2023-04-21T06:37:10;95162.06;;;6.63;100.00
43878;BME280;29815;48.184;11.268;2023-04-21T06:39:41;95154.84;;;6.63;100.00
43878;BME280;29815;48.184;11.268;2023-04-21T06:42:10;95162.09;;;6.68;100.00
43878;BME280;29815;48.184;11.268;2023-04-21T06:44:43;95152.22;;;6.68;100.00
43878;BME280;29815;48.184;11.268;2023-04-21T06:47:12;95151.44;;;6.73;100.00
43878;BME280;29815;48.184;11.268;2023-04-21T06:49:43;95155.22;;;6.77;100.00
43878;BME280;29815;48.184;11.268;2023-04-21T06:52:13;95155.03;;;6.84;100.00
43878;BME280;29815;48.184;11.268;2023-04-21T06:54:46;95149.44;;;6.90;100.00
43878;BME280;29815;48.184;11.268;2023-04-21T06:57:16;95162.34;;;6.98;100.00
43878;BME280;29815;48.184;11.268;2023-04-21T06:59:45;95153.59;;;7.08;100.00
43878;BME280;29815;48.184;11.268;2023-04-21T07:02:18;95161.13;;;7.11;100.00
43878;BME280;29815;48.184;11.268;2023-04-21T07:04:47;95160.34;;;7.21;100.00
43878;BME280;29815;48.184;11.268;2023-04-21T07:07:17;95160.13;;;7.27;100.00
43878;BME280;29815;48.184;11.268;2023-04-21T07:09:48;95163.94;;;7.41;100.00
43878;BME280;29815;48.184;11.268;2023-04-21T07:12:17;95156.81;;;7.57;100.00
43878;BME280;29815;48.184;11.268;2023-04-21T07:14:46;95152.84;;;7.70;100.00
43878;BME280;29815;48.184;11.268;2023-04-21T07:17:16;95148.34;;;7.80;100.00
43878;BME280;29815;48.184;11.268;2023-04-21T07:19:45;95141.44;;;7.90;100.00
43878;BME280;29815;48.184;11.268;2023-04-21T07:22:15;95142.50;;;7.99;100.00
43878;BME280;29815;48.184;11.268;2023-04-21T07:24:46;95151.41;;;8.09;100.00
43878;BME280;29815;48.184;11.268;2023-04-21T07:27:16;95152.78;;;8.17;100.00
43878;BME280;29815;48.184;11.268;2023-04-21T07:29:47;95147.69;;;8.26;100.00
43878;BME280;29815;48.184;11.268;2023-04-21T07:32:16;95142.31;;;8.26;100.00
43878;BME280;29815;48.184;11.268;2023-04-21T07:34:46;95157.88;;;8.29;100.00
43878;BME280;29815;48.184;11.268;2023-04-21T16:11:45;94863.94;;;23.32;45.43
43878;BME280;29815;48.184;11.268;2023-04-21T16:14:17;94860.66;;;23.00;45.79
43878;BME280;29815;48.184;11.268;2023-04-21T16:16:47;94865.03;;;22.82;45.52
43878;BME280;29815;48.184;11.268;2023-04-21T16:19:16;94864.44;;;22.73;45.64
43878;BME280;29815;48.184;11.268;2023-04-21T16:21:46;94867.94;;;22.70;46.17
43878;BME280;29815;48.184;11.268;2023-04-21T16:24:16;94867.28;;;22.57;46.28
43878;BME280;29815;48.184;11.268;2023-04-21T16:26:47;94867.75;;;22.40;46.82
43878;BME280;29815;48.184;11.268;2023-04-21T16:29:17;94874.72;;;22.18;46.44
43878;BME280;29815;48.184;11.268;2023-04-21T16:31:48;94876.81;;;22.05;46.57
43878;BME280;29815;48.184;11.268;2023-04-21T16:34:18;94861.53;;;21.88;47.26
43878;BME280;29815;48.184;11.268;2023-04-21T16:36:47;94864.03;;;21.58;47.06
43878;BME280;29815;48.184;11.268;2023-04-21T16:39:17;94864.59;;;21.33;48.09
43878;BME280;29815;48.184;11.268;2023-04-21T16:41:47;94871.88;;;21.13;48.86
43878;BME280;29815;48.184;11.268;2023-04-21T16:44:17;94876.47;;;20.93;49.32
43878;BME280;29815;48.184;11.268;2023-04-21T16:46:48;94875.13;;;20.71;48.89
43878;BME280;29815;48.184;11.268;2023-04-21T16:49:17;94875.69;;;20.49;49.33
43878;BME280;29815;48.184;11.268;2023-04-21T16:51:47;94877.31;;;20.38;49.70
43878;BME280;29815;48.184;11.268;2023-04-21T16:54:17;94880.78;;;20.22;50.38
43878;BME280;29815;48.184;11.268;2023-04-21T16:56:48;94878.22;;;20.02;50.80
43878;BME280;29815;48.184;11.268;2023-04-21T16:59:18;94878.84;;;19.83;51.66
43878;BME280;29815;48.184;11.268;2023-04-21T17:01:48;94878.88;;;19.58;52.39
43878;BME280;29815;48.184;11.268;2023-04-21T17:04:18;94881.81;;;19.41;52.70
43878;BME280;29815;48.184;11.268;2023-04-21T17:06:48;94881.47;;;19.18;53.10
43878;BME280;29815;48.184;11.268;2023-04-21T17:09:18;94873.63;;;19.05;53.24
43878;BME280;29815;48.184;11.268;2023-04-21T17:11:49;94876.31;;;18.92;53.43
43878;BME280;29815;48.184;11.268;2023-04-21T17:14:18;94883.38;;;18.81;53.78
43878;BME280;29815;48.184;11.268;2023-04-21T17:16:48;94879.13;;;18.72;54.37
43878;BME280;29815;48.184;11.268;2023-04-21T17:19:18;94885.00;;;18.62;54.63
43878;BME280;29815;48.184;11.268;2023-04-21T17:21:47;94877.72;;;18.53;54.88
43878;BME280;29815;48.184;11.268;2023-04-21T17:24:17;94875.06;;;18.45;55.10
43878;BME280;29815;48.184;11.268;2023-04-21T17:26:48;94873.22;;;18.37;55.26
43878;BME280;29815;48.184;11.268;2023-04-21T17:29:18;94877.16;;;18.27;55.64
43878;BME280;29815;48.184;11.268;2023-04-21T17:31:47;94887.34;;;18.18;56.28
43878;BME280;29815;48.184;11.268;2023-04-21T17:34:17;94877.63;;;18.08;56.71
43878;BME280;29815;48.184;11.268;2023-04-21T17:36:47;94882.22;;;17.96;56.42
43878;BME280;29815;48.184;11.268;2023-04-21T17:39:17;94874.78;;;17.84;56.58
43878;BME280;29815;48.184;11.268;2023-04-21T17:41:46;94886.88;;;17.74;56.74
43878;BME280;29815;48.184;11.268;2023-04-21T17:44:17;94883.72;;;17.64;57.77
43878;BME280;29815;48.184;11.268;2023-04-21T17:46:47;94888.72;;;17.53;58.05
43878;BME280;29815;48.184;11.268;2023-04-21T17:49:17;94892.19;;;17.41;58.97
43878;BME280;29815;48.184;11.268;2023-04-21T17:51:47;94885.84;;;17.29;59.37
43878;BME280;29815;48.184;11.268;2023-04-21T17:54:18;94885.75;;;17.16;59.44
43878;BME280;29815;48.184;11.268;2023-04-21T17:56:49;94886.44;;;17.05;60.08
43878;BME280;29815;48.184;11.268;2023-04-21T17:59:20;94895.78;;;16.95;60.42
43878;BME280;29815;48.184;11.268;2023-04-21T18:01:49;94902.69;;;16.84;60.42
43878;BME280;29815;48.184;11.268;2023-04-21T18:04:19;94899.81;;;16.72;61.35
43878;BME280;29815;48.184;11.268;2023-04-21T18:06:51;94902.06;;;16.61;61.90
43878;BME280;29815;48.184;11.268;2023-04-21T18:09:20;94901.13;;;16.48;62.66
43878;BME280;29815;48.184;11.268;2023-04-21T18:11:50;94909.63;;;16.38;63.72
43878;BME280;29815;48.184;11.268;2023-04-21T18:14:22;94914.28;;;16.29;64.38
43878;BME280;29815;48.184;11.268;2023-04-21T18:16:51;94911.88;;;16.19;65.20
43878;BME280;29815;48.184;11.268;2023-04-21T18:19:21;94920.34;;;16.09;66.24
43878;BME280;29815;48.184;11.268;2023-04-21T18:21:51;94920.66;;;15.99;67.18
43878;BME280;29815;48.184;11.268;2023-04-21T18:24:20;94927.19;;;15.89;68.69
43878;BME280;29815;48.184;11.268;2023-04-21T18:26:50;94925.28;;;15.72;70.44
43878;BME280;29815;48.184;11.268;2023-04-21T18:29:21;94931.28;;;15.52;73.55
43878;BME280;29815;48.184;11.268;2023-04-21T18:31:50;94936.81;;;15.30;77.80
43878;BME280;29815;48.184;11.268;2023-04-21T18:34:20;94938.47;;;15.08;81.85
43878;BME280;29815;48.184;11.268;2023-04-21T18:36:50;94951.44;;;14.89;85.46
43878;BME280;29815;48.184;11.268;2023-04-21T18:39:19;94959.81;;;14.70;90.03
43878;BME280;29815;48.184;11.268;2023-04-21T18:41:49;94965.09;;;14.53;93.27
43878;BME280;29815;48.184;11.268;2023-04-21T18:44:20;94968.97;;;14.38;97.51
43878;BME280;29815;48.184;11.268;2023-04-21T18:46:50;94992.31;;;14.48;100.00
43878;BME280;29815;48.184;11.268;2023-04-21T18:49:19;95012.19;;;14.43;91.80
43878;BME280;29815;48.184;11.268;2023-04-21T18:51:49;95013.19;;;14.34;87.31
43878;BME280;29815;48.184;11.268;2023-04-21T18:54:18;95026.63;;;14.39;89.46
43878;BME280;29815;48.184;11.268;2023-04-21T18:56:48;95028.31;;;14.35;91.21
43878;BME280;29815;48.184;11.268;2023-04-21T18:59:18;95030.94;;;14.40;88.11
43878;BME280;29815;48.184;11.268;2023-04-21T19:01:50;95053.59;;;14.44;83.13
43878;BME280;29815;48.184;11.268;2023-04-21T19:04:21;95061.41;;;14.32;73.39
43878;BME280;29815;48.184;11.268;2023-04-21T19:06:51;95063.75;;;14.24;74.60
43878;BME280;29815;48.184;11.268;2023-04-21T19:09:20;95076.22;;;14.12;73.75
43878;BME280;29815;48.184;11.268;2023-04-21T19:11:50;95080.72;;;14.03;72.54
43878;BME280;29815;48.184;11.268;2023-04-21T19:14:20;95082.56;;;13.94;72.35
43878;BME280;29815;48.184;11.268;2023-04-21T19:16:51;95082.56;;;13.80;71.42
43878;BME280;29815;48.184;11.268;2023-04-21T19:19:21;95089.75;;;13.71;76.14
43878;BME280;29815;48.184;11.268;2023-04-21T19:21:51;95083.25;;;13.58;76.52
43878;BME280;29815;48.184;11.268;2023-04-21T19:24:21;95088.75;;;13.39;74.00
43878;BME280;29815;48.184;11.268;2023-04-21T19:26:51;95085.44;;;13.29;74.82
43878;BME280;29815;48.184;11.268;2023-04-21T19:29:20;95088.31;;;13.18;80.71
43878;BME280;29815;48.184;11.268;2023-04-21T19:31:52;95089.06;;;13.05;83.02
43878;BME280;29815;48.184;11.268;2023-04-21T19:34:22;95082.22;;;12.94;88.66
43878;BME280;29815;48.184;11.268;2023-04-21T19:36:51;95089.63;;;12.70;95.11
43878;BME280;29815;48.184;11.268;2023-04-21T19:39:21;95087.09;;;12.41;100.00
43878;BME280;29815;48.184;11.268;2023-04-21T19:41:50;95076.75;;;12.29;100.00
43878;BME280;29815;48.184;11.268;2023-04-21T19:44:20;95079.59;;;12.19;100.00
43878;BME280;29815;48.184;11.268;2023-04-21T19:46:51;95080.69;;;11.99;100.00
43878;BME280;29815;48.184;11.268;2023-04-21T19:49:21;95077.75;;;11.96;100.00
43878;BME280;29815;48.184;11.268;2023-04-21T19:51:51;95070.94;;;11.79;100.00
43878;BME280;29815;48.184;11.268;2023-04-21T19:54:22;95075.06;;;11.72;100.00
43878;BME280;29815;48.184;11.268;2023-04-21T19:56:51;95062.97;;;11.69;100.00
43878;BME280;29815;48.184;11.268;2023-04-21T19:59:21;95060.59;;;11.63;100.00
43878;BME280;29815;48.184;11.268;2023-04-21T20:01:52;95051.78;;;11.57;100.00
43878;BME280;29815;48.184;11.268;2023-04-21T20:04:22;95051.91;;;11.47;100.00
43878;BME280;29815;48.184;11.268;2023-04-21T20:06:51;95055.19;;;11.44;100.00
43878;BME280;29815;48.184;11.268;2023-04-21T20:09:21;95061.66;;;11.43;100.00
43878;BME280;29815;48.184;11.268;2023-04-21T20:11:51;95057.75;;;11.30;100.00
43878;BME280;29815;48.184;11.268;2023-04-21T20:14:20;95062.59;;;11.28;100.00
43878;BME280;29815;48.184;11.268;2023-04-21T20:16:52;95050.50;;;11.26;100.00
43878;BME280;29815;48.184;11.268;2023-04-21T20:19:22;95042.78;;;11.19;100.00
43878;BME280;29815;48.184;11.268;2023-04-21T20:21:54;95045.88;;;11.07;100.00
43878;BME280;29815;48.184;11.268;2023-04-21T20:24:23;95043.78;;;10.99;100.00
43878;BME280;29815;48.184;11.268;2023-04-21T20:26:53;95035.75;;;10.94;100.00
43878;BME280;29815;48.184;11.268;2023-04-21T20:29:22;95038.50;;;10.89;100.00
43878;BME280;29815;48.184;11.268;2023-04-21T20:31:54;95038.28;;;10.85;100.00
43878;BME280;29815;48.184;11.268;2023-04-21T20:34:24;95030.47;;;10.84;100.00
43878;BME280;29815;48.184;11.268;2023-04-21T20:36:54;95028.88;;;10.83;100.00
43878;BME280;29815;48.184;11.268;2023-04-21T20:39:24;95032.38;;;10.83;100.00
43878;BME280;29815;48.184;11.268;2023-04-21T20:41:54;95032.91;;;10.85;100.00
43878;BME280;29815;48.184;11.268;2023-04-21T20:44:40;95031.00;;;10.86;100.00
43878;BME280;29815;48.184;11.268;2023-04-21T20:47:11;95022.66;;;10.88;100.00
43878;BME280;29815;48.184;11.268;2023-04-21T20:49:41;95031.53;;;10.88;100.00
43878;BME280;29815;48.184;11.268;2023-04-21T20:52:11;95022.13;;;10.85;100.00
43878;BME280;29815;48.184;11.268;2023-04-21T20:54:41;95019.72;;;10.84;100.00
43878;BME280;29815;48.184;11.268;2023-04-21T20:57:11;95015.69;;;10.81;100.00
43878;BME280;29815;48.184;11.268;2023-04-21T20:59:42;95017.31;;;10.82;100.00
43878;BME280;29815;48.184;11.268;2023-04-21T21:02:13;95007.63;;;10.81;100.00
43878;BME280;29815;48.184;11.268;2023-04-21T21:04:42;95004.66;;;10.83;100.00
43878;BME280;29815;48.184;11.268;2023-04-21T21:07:14;95006.00;;;10.80;100.00
43878;BME280;29815;48.184;11.268;2023-04-21T21:09:44;95008.75;;;10.75;100.00
43878;BME280;29815;48.184;11.268;2023-04-21T21:12:14;95007.72;;;10.71;100.00
43878;BME280;29815;48.184;11.268;2023-04-21T21:14:43;95012.66;;;10.64;100.00
43878;BME280;29815;48.184;11.268;2023-04-21T21:17:15;95011.94;;;10.48;100.00
43878;BME280;29815;48.184;11.268;2023-04-21T21:19:44;95019.94;;;10.25;100.00
43878;BME280;29815;48.184;11.268;2023-04-21T21:22:16;95022.44;;;10.11;100.00
43878;BME280;29815;48.184;11.268;2023-04-21T21:24:46;95027.84;;;10.06;100.00
43878;BME280;29815;48.184;11.268;2023-04-21T21:27:17;95021.69;;;10.05;100.00
43878;BME280;29815;48.184;11.268;2023-04-21T21:29:47;95017.94;;;10.01;100.00
43878;BME280;29815;48.184;11.268;2023-04-21T21:32:19;95016.38;;;9.90;100.00
43878;BME280;29815;48.184;11.268;2023-04-21T21:34:49;95020.50;;;9.77;100.00
43878;BME280;29815;48.184;11.268;2023-04-21T21:37:19;95024.84;;;9.68;100.00
43878;BME280;29815;48.184;11.268;2023-04-21T21:39:50;95020.31;;;9.59;100.00
43878;BME280;29815;48.184;11.268;2023-04-21T21:42:22;95018.72;;;9.58;100.00
43878;BME280;29815;48.184;11.268;2023-04-21T21:44:51;95019.22;;;9.60;100.00
43878;BME280;29815;48.184;11.268;2023-04-21T21:47:22;95024.06;;;9.63;100.00
43878;BME280;29815;48.184;11.268;2023-04-21T21:49:53;95028.06;;;9.70;100.00
43878;BME280;29815;48.184;11.268;2023-04-21T21:52:25;95030.22;;;9.68;100.00
43878;BME280;29815;48.184;11.268;2023-04-21T21:54:55;95029.75;;;9.56;100.00
43878;BME280;29815;48.184;11.268;2023-04-21T21:57:25;95029.00;;;9.45;100.00
43878;BME280;29815;48.184;11.268;2023-04-21T21:59:55;95030.88;;;9.40;100.00
43878;BME280;29815;48.184;11.268;2023-04-21T22:02:29;95032.50;;;9.36;100.00
43878;BME280;29815;48.184;11.268;2023-04-21T22:04:59;95025.81;;;9.33;100.00
43878;BME280;29815;48.184;11.268;2023-04-21T22:07:29;95021.75;;;9.36;100.00
43878;BME280;29815;48.184;11.268;2023-04-21T22:09:59;95020.13;;;9.40;100.00
43878;BME280;29815;48.184;11.268;2023-04-21T22:12:30;95023.09;;;9.43;100.00
43878;BME280;29815;48.184;11.268;2023-04-21T22:15:01;95024.94;;;9.48;100.00
43878;BME280;29815;48.184;11.268;2023-04-21T22:17:33;95008.00;;;9.53;100.00
43878;BME280;29815;48.184;11.268;2023-04-21T22:20:07;95009.34;;;9.55;100.00
43878;BME280;29815;48.184;11.268;2023-04-21T22:22:39;95006.59;;;9.60;100.00
43878;BME280;29815;48.184;11.268;2023-04-21T22:25:09;95004.69;;;9.66;100.00
43878;BME280;29815;48.184;11.268;2023-04-21T22:27:39;95005.22;;;9.68;100.00
43878;BME280;29815;48.184;11.268;2023-04-21T22:30:10;95011.69;;;9.67;100.00
43878;BME280;29815;48.184;11.268;2023-04-21T22:32:41;95011.16;;;9.65;100.00
43878;BME280;29815;48.184;11.268;2023-04-21T22:35:11;95014.94;;;9.59;100.00
43878;BME280;29815;48.184;11.268;2023-04-21T22:37:41;95004.53;;;9.52;100.00
43878;BME280;29815;48.184;11.268;2023-04-21T22:40:11;95013.41;;;9.47;100.00
43878;BME280;29815;48.184;11.268;2023-04-21T22:42:41;95016.63;;;9.44;100.00
43878;BME280;29815;48.184;11.268;2023-04-21T22:45:11;95018.78;;;9.47;100.00
43878;BME280;29815;48.184;11.268;2023-04-21T22:47:42;95019.84;;;9.52;100.00
43878;BME280;29815;48.184;11.268;2023-04-21T22:50:12;95020.91;;;9.56;100.00
43878;BME280;29815;48.184;11.268;2023-04-21T22:52:43;95024.59;;;9.60;100.00
43878;BME280;29815;48.184;11.268;2023-04-21T22:55:14;95017.59;;;9.64;100.00
43878;BME280;29815;48.184;11.268;2023-04-21T22:57:44;95023.22;;;9.67;100.00
43878;BME280;29815;48.184;11.268;2023-04-21T23:00:15;95027.00;;;9.66;100.00
43878;BME280;29815;48.184;11.268;2023-04-21T23:02:47;95027.56;;;9.63;100.00
43878;BME280;29815;48.184;11.268;2023-04-21T23:05:17;95035.69;;;9.53;100.00
43878;BME280;29815;48.184;11.268;2023-04-21T23:07:47;95039.75;;;9.40;100.00
43878;BME280;29815;48.184;11.268;2023-04-21T23:10:17;95034.72;;;9.24;100.00
43878;BME280;29815;48.184;11.268;2023-04-21T23:12:47;95031.50;;;9.11;100.00
43878;BME280;29815;48.184;11.268;2023-04-21T23:15:17;95039.03;;;9.04;100.00
43878;BME280;29815;48.184;11.268;2023-04-21T23:17:49;95049.56;;;8.96;100.00
43878;BME280;29815;48.184;11.268;2023-04-21T23:20:19;95054.13;;;8.85;100.00
43878;BME280;29815;48.184;11.268;2023-04-21T23:22:49;95054.38;;;8.78;100.00
43878;BME280;29815;48.184;11.268;2023-04-21T23:25:19;95052.28;;;8.60;100.00
43878;BME280;29815;48.184;11.268;2023-04-21T23:27:49;95050.41;;;8.51;100.00
43878;BME280;29815;48.184;11.268;2023-04-21T23:30:20;95054.97;;;8.45;100.00
43878;BME280;29815;48.184;11.268;2023-04-21T23:32:51;95057.91;;;8.33;100.00
43878;BME280;29815;48.184;11.268;2023-04-21T23:35:21;95062.97;;;8.30;100.00
43878;BME280;29815;48.184;11.268;2023-04-21T23:37:51;95057.59;;;8.30;100.00
43878;BME280;29815;48.184;11.268;2023-04-21T23:40:21;95058.13;;;8.27;100.00
43878;BME280;29815;48.184;11.268;2023-04-21T23:42:50;95060.00;;;8.21;100.00
43878;BME280;29815;48.184;11.268;2023-04-21T23:45:20;95060.56;;;8.13;100.00
43878;BME280;29815;48.184;11.268;2023-04-21T23:47:51;95053.03;;;8.10;100.00
43878;BME280;29815;48.184;11.268;2023-04-21T23:50:21;95051.16;;;8.10;100.00
43878;BME280;29815;48.184;11.268;2023-04-21T23:52:51;95048.75;;;8.09;100.00
43878;BME280;29815;48.184;11.268;2023-04-21T23:55:20;95050.88;;;8.07;100.00
43878;BME280;29815;48.184;11.268;2023-04-21T23:57:50;95043.91;;;7.91;100.00
